Time;durP1;ratioP1;P1;durP2;ratioP2;P2;SDS_P1;SDS_P2;PMS_P1;PMS_P2;Temp;Humidity;BMP_temperature;BMP_pressure;BME280_temperature;BME280_humidity;BME280_pressure;Samples;Min_cycle;Max_cycle;Signal;HPM_P1;HPM_P2
2020/12/11 00:02:08;;;;;;;26.17;6.70;;;;;;;20.54;41.96;98042.75;4994590;28;20497;-79
2020/12/11 00:04:34;;;;;;;32.50;8.25;;;;;;;20.42;42.32;98036.75;4994320;28;20027;-82
2020/12/11 00:07:00;;;;;;;27.65;7.15;;;;;;;20.43;42.29;98035.53;4994169;28;20097;-79
2020/12/11 00:09:27;;;;;;;27.60;6.72;;;;;;;20.54;42.24;98034.44;4994260;28;20117;-79
2020/12/11 00:11:54;;;;;;;20.67;6.95;;;;;;;20.52;42.25;98034.88;4992707;28;20030;-83
2020/12/11 00:14:20;;;;;;;21.48;7.05;;;;;;;20.55;42.29;98028.44;4993920;28;20041;-79
2020/12/11 00:16:46;;;;;;;31.73;7.00;;;;;;;20.35;42.86;98031.44;4994344;28;20028;-78
2020/12/11 00:19:12;;;;;;;26.25;7.38;;;;;;;20.59;42.27;98022.78;4994095;28;20481;-80
2020/12/11 00:21:42;;;;;;;20.13;6.25;;;;;;;20.54;42.14;98024.13;4993952;28;20029;-79
2020/12/11 00:24:09;;;;;;;20.48;6.15;;;;;;;20.65;42.18;98030.09;4993977;28;20027;-79
2020/12/11 00:26:34;;;;;;;19.13;5.50;;;;;;;20.61;42.06;98021.13;4993882;28;20376;-79
2020/12/11 00:29:00;;;;;;;24.67;6.18;;;;;;;20.55;42.47;98027.66;4993902;28;20099;-78
2020/12/11 00:31:27;;;;;;;17.83;5.68;;;;;;;20.44;42.78;98028.78;4993888;28;20046;-80
2020/12/11 00:33:53;;;;;;;16.95;6.10;;;;;;;20.74;42.10;98026.66;4992413;28;20093;-78
2020/12/11 00:36:19;;;;;;;20.33;6.07;;;;;;;20.79;41.96;98031.66;4993872;28;20034;-79
2020/12/11 00:38:45;;;;;;;21.40;6.15;;;;;;;20.75;42.10;98034.53;4993466;28;20030;-80
2020/12/11 00:41:11;;;;;;;20.23;6.15;;;;;;;20.81;42.03;98031.97;4993698;28;20233;-80
2020/12/11 00:43:37;;;;;;;23.30;7.05;;;;;;;20.91;41.82;98030.81;4992425;28;20084;-79
2020/12/11 00:46:03;;;;;;;24.95;6.45;;;;;;;20.64;42.38;98031.34;4993634;28;20049;-79
2020/12/11 00:48:29;;;;;;;22.80;6.30;;;;;;;20.58;42.59;98030.34;4993537;28;20037;-80
2020/12/11 00:50:55;;;;;;;22.70;6.25;;;;;;;20.82;42.07;98030.75;4993534;28;20031;-80
2020/12/11 00:53:20;;;;;;;20.00;6.43;;;;;;;20.91;41.98;98039.16;4993419;28;20069;-81
2020/12/11 00:55:46;;;;;;;13.15;6.05;;;;;;;20.73;42.12;98038.97;4993468;28;20034;-84
2020/12/11 00:58:11;;;;;;;21.75;6.20;;;;;;;20.58;42.50;98035.88;4993318;28;20069;-80
2020/12/11 01:00:37;;;;;;;16.20;6.20;;;;;;;20.65;42.31;98041.22;4993341;28;20113;-80
2020/12/11 01:03:03;;;;;;;19.70;5.32;;;;;;;20.55;42.53;98031.22;4993341;28;20030;-80
2020/12/11 01:05:30;;;;;;;21.90;6.43;;;;;;;20.32;43.15;98034.31;4993245;28;20452;-81
2020/12/11 01:07:55;;;;;;;22.45;6.25;;;;;;;20.63;42.37;98032.56;4993307;28;20385;-82
2020/12/11 01:10:21;;;;;;;18.58;5.88;;;;;;;20.66;42.34;98036.44;4993232;28;20041;-80
2020/12/11 01:12:47;;;;;;;20.65;5.60;;;;;;;20.71;42.21;98022.78;4993200;28;20478;-80
2020/12/11 01:15:12;;;;;;;23.52;6.25;;;;;;;20.63;42.48;98028.97;4993241;28;20049;-81
2020/12/11 01:17:38;;;;;;;20.27;6.25;;;;;;;20.70;42.13;98021.19;4993217;28;20031;-80
2020/12/11 01:20:04;;;;;;;20.50;6.05;;;;;;;20.73;42.23;98020.34;4993157;28;20034;-85
2020/12/11 01:22:31;;;;;;;20.33;5.80;;;;;;;20.71;42.05;98017.22;4993198;28;20112;-80
2020/12/11 01:24:58;;;;;;;16.77;5.07;;;;;;;20.52;42.50;98017.47;4993056;28;20374;-85
2020/12/11 01:27:23;;;;;;;14.07;5.10;;;;;;;20.70;42.18;98021.19;4993062;28;20048;-81
2020/12/11 01:29:49;;;;;;;15.88;5.15;;;;;;;20.75;42.08;98017.09;4993154;28;20031;-81
2020/12/11 01:32:15;;;;;;;17.15;4.60;;;;;;;20.81;41.83;98015.31;4992999;28;20035;-80
2020/12/11 01:34:40;;;;;;;29.52;6.93;;;;;;;20.76;41.84;98018.66;4993016;28;20034;-81
2020/12/11 01:37:06;;;;;;;24.17;5.93;;;;;;;20.80;41.77;98019.31;4993082;28;20432;-80
2020/12/11 01:39:32;;;;;;;26.92;7.15;;;;;;;21.04;41.42;98016.91;4992769;28;20057;-80
2020/12/11 01:41:59;;;;;;;17.65;4.90;;;;;;;20.83;41.54;98012.88;4992979;28;20034;-80
2020/12/11 01:44:25;;;;;;;17.55;5.50;;;;;;;20.75;41.56;98011.56;4992945;28;20045;-80
2020/12/11 01:46:51;;;;;;;21.70;5.30;;;;;;;20.72;41.92;98012.47;4992837;28;20038;-82
2020/12/11 01:49:17;;;;;;;22.25;6.30;;;;;;;20.69;41.75;98008.56;4992990;28;20037;-85
2020/12/11 01:51:45;;;;;;;20.80;5.55;;;;;;;20.71;41.87;98010.91;4992893;28;20110;-81
2020/12/11 01:54:10;;;;;;;18.50;5.57;;;;;;;20.75;41.80;98011.56;4992871;28;20037;-81
2020/12/11 01:57:02;;;;;;;22.15;5.82;;;;;;;20.72;41.72;98010.47;4991568;28;20026;-81
2020/12/11 01:59:42;;;;;;;23.52;5.75;;;;;;;20.69;41.76;98005.78;4983664;28;20039;-85
2020/12/11 02:02:10;;;;;;;19.90;6.50;;;;;;;20.71;41.67;97999.81;4992944;28;20388;-80
2020/12/11 02:04:37;;;;;;;25.20;5.93;;;;;;;20.67;41.92;97999.91;4992877;28;20073;-80
2020/12/11 02:07:04;;;;;;;20.45;5.30;;;;;;;20.65;41.77;97999.59;4992746;28;20110;-81
2020/12/11 02:09:36;;;;;;;20.83;6.03;;;;;;;20.64;41.68;98002.81;4992894;28;20477;-80
2020/12/11 02:12:03;;;;;;;19.92;5.63;;;;;;;20.75;41.38;98001.22;4992808;28;20030;-81
2020/12/11 02:14:30;;;;;;;16.30;5.20;;;;;;;20.66;41.62;98005.91;4992650;28;20125;-82
2020/12/11 02:16:57;;;;;;;18.45;5.57;;;;;;;20.34;42.44;97993.84;4976974;28;20034;-80
2020/12/11 02:19:24;;;;;;;18.40;5.15;;;;;;;20.27;42.60;97994.06;4996273;28;20092;-80
2020/12/11 02:21:51;;;;;;;16.33;5.03;;;;;;;20.32;42.50;97996.25;4995118;28;20030;-80
2020/12/11 02:24:17;;;;;;;21.60;5.20;;;;;;;20.30;42.35;97993.16;4994799;28;20034;-80
2020/12/11 02:26:43;;;;;;;21.48;5.82;;;;;;;20.21;42.70;97990.28;4994625;28;20046;-81
2020/12/11 02:29:09;;;;;;;20.40;5.50;;;;;;;20.28;42.31;97986.53;4994844;28;20068;-81
2020/12/11 02:31:35;;;;;;;19.75;4.55;;;;;;;20.23;42.53;97982.28;4996053;28;20066;-80
2020/12/11 02:34:01;;;;;;;19.20;5.30;;;;;;;20.24;42.50;97979.06;4995888;28;20458;-80
2020/12/11 02:36:26;;;;;;;19.27;5.25;;;;;;;20.20;42.38;97972.09;4978456;28;20113;-80
2020/12/11 02:38:52;;;;;;;21.83;7.38;;;;;;;20.39;42.11;97973.84;4978213;28;20022;-81
2020/12/11 02:41:18;;;;;;;21.15;5.43;;;;;;;20.48;41.84;97976.00;4995959;28;20038;-84
2020/12/11 02:43:43;;;;;;;17.52;5.32;;;;;;;20.48;41.90;97971.22;4995802;28;20023;-80
2020/12/11 02:46:09;;;;;;;20.23;5.47;;;;;;;20.46;41.72;97964.56;4995808;28;20037;-80
2020/12/11 02:48:35;;;;;;;20.13;4.28;;;;;;;20.46;41.71;97965.31;4995836;28;20474;-81
2020/12/11 02:51:01;;;;;;;22.35;5.20;;;;;;;20.29;41.94;97969.44;4995769;28;20477;-81
2020/12/11 02:53:27;;;;;;;20.35;5.65;;;;;;;20.16;42.28;97966.66;4995684;28;20440;-80
2020/12/11 02:55:53;;;;;;;18.02;6.00;;;;;;;20.07;42.65;97963.00;4995598;28;20473;-80
2020/12/11 02:58:19;;;;;;;19.73;5.13;;;;;;;20.00;42.55;97972.31;4995635;28;20065;-80
2020/12/11 03:00:44;;;;;;;23.23;5.72;;;;;;;20.22;41.93;97961.34;4995508;28;20027;-80
2020/12/11 03:03:10;;;;;;;20.13;6.15;;;;;;;20.32;41.72;97965.75;4995491;28;20492;-81
2020/12/11 03:05:36;;;;;;;21.63;5.70;;;;;;;20.34;41.71;97966.13;4995488;28;20088;-80
2020/12/11 03:08:01;;;;;;;20.90;5.32;;;;;;;20.43;41.53;97963.44;4995366;28;20433;-81
2020/12/11 03:10:27;;;;;;;19.58;6.00;;;;;;;20.30;41.60;97959.88;4995410;28;20027;-80
2020/12/11 03:12:53;;;;;;;16.92;4.68;;;;;;;20.33;41.73;97961.78;4995253;28;20491;-80
2020/12/11 03:15:18;;;;;;;16.05;4.95;;;;;;;20.30;41.56;97959.13;4977770;28;20037;-81
2020/12/11 03:17:44;;;;;;;21.35;5.10;;;;;;;20.29;41.82;97955.56;4995264;28;20040;-83
2020/12/11 03:20:09;;;;;;;18.48;5.35;;;;;;;20.27;41.61;97955.25;4995176;28;20460;-80
2020/12/11 03:22:35;;;;;;;20.27;5.20;;;;;;;20.35;41.39;97955.78;4995199;28;20026;-80
2020/12/11 03:25:02;;;;;;;17.33;5.50;;;;;;;20.37;41.32;97953.34;4995072;28;20121;-81
2020/12/11 03:27:28;;;;;;;11.05;4.20;;;;;;;20.36;41.70;97949.78;4994969;28;20485;-80
2020/12/11 03:29:54;;;;;;;22.85;5.22;;;;;;;20.37;41.31;97948.56;4995018;28;20065;-80
2020/12/11 03:32:19;;;;;;;21.35;5.35;;;;;;;20.36;41.29;97952.56;4994905;28;20408;-80
2020/12/11 03:34:45;;;;;;;22.38;5.60;;;;;;;20.35;41.32;97948.25;4994925;28;20465;-81
2020/12/11 03:37:11;;;;;;;20.70;6.40;;;;;;;20.32;41.25;97953.91;4994867;28;20034;-81
2020/12/11 03:39:37;;;;;;;16.08;4.35;;;;;;;20.18;41.60;97949.59;4994564;28;20129;-80
2020/12/11 03:42:02;;;;;;;19.42;5.88;;;;;;;20.16;41.67;97947.25;4994802;28;20034;-80
2020/12/11 03:44:28;;;;;;;21.60;5.53;;;;;;;20.13;41.65;97947.38;4994783;28;20030;-80
2020/12/11 03:46:55;;;;;;;15.93;4.35;;;;;;;20.10;41.99;97949.06;4994161;28;20026;-80
2020/12/11 03:49:22;;;;;;;21.88;5.43;;;;;;;20.06;41.89;97942.84;4993891;28;20436;-81
2020/12/11 03:51:52;;;;;;;20.33;4.75;;;;;;;20.04;41.89;97936.97;4994549;28;20061;-81
2020/12/11 03:54:17;;;;;;;20.80;6.18;;;;;;;20.23;41.50;97937.94;4994632;28;20034;-81
2020/12/11 03:56:43;;;;;;;23.38;4.88;;;;;;;20.23;41.47;97937.94;4994231;28;20397;-80
2020/12/11 03:59:08;;;;;;;18.73;5.25;;;;;;;20.03;42.04;97935.44;4977009;28;20030;-84
2020/12/11 04:01:34;;;;;;;15.55;4.38;;;;;;;20.30;41.26;97936.94;4994373;28;20030;-81
2020/12/11 04:03:59;;;;;;;19.92;6.15;;;;;;;20.33;41.29;97936.84;4994378;28;20027;-80
2020/12/11 04:06:25;;;;;;;24.80;5.57;;;;;;;20.33;41.13;97936.84;4994291;28;20068;-81
2020/12/11 04:08:50;;;;;;;19.42;4.30;;;;;;;20.31;41.13;97942.03;4994227;28;20023;-80
2020/12/11 04:11:16;;;;;;;23.20;7.00;;;;;;;20.16;41.28;97938.94;4994231;28;20178;-81
2020/12/11 04:13:42;;;;;;;16.02;5.30;;;;;;;19.99;41.97;97939.50;4994053;28;20125;-80
2020/12/11 04:16:09;;;;;;;20.38;6.65;;;;;;;19.89;41.94;97930.31;4994145;28;20367;-80
2020/12/11 04:18:35;;;;;;;26.73;6.18;;;;;;;19.92;42.06;97934.97;4993767;28;20101;-83
2020/12/11 04:21:01;;;;;;;24.23;6.00;;;;;;;19.86;42.03;97931.97;5302630;23;20104;-77
2020/12/11 04:23:27;;;;;;;24.05;5.65;;;;;;;19.84;42.07;97933.63;5012164;28;20022;-77
2020/12/11 04:25:53;;;;;;;19.35;5.40;;;;;;;19.81;42.28;97929.78;5025189;28;20039;-77
2020/12/11 04:28:20;;;;;;;17.23;4.80;;;;;;;19.87;42.12;97927.97;4993929;28;20027;-77
2020/12/11 04:30:46;;;;;;;24.27;5.80;;;;;;;19.81;42.29;97924.22;4993944;28;20030;-77
2020/12/11 04:33:11;;;;;;;16.92;5.22;;;;;;;19.73;42.17;97922.91;4993837;28;20100;-77
2020/12/11 04:35:37;;;;;;;24.05;6.10;;;;;;;19.75;42.02;97925.22;4993789;28;20026;-77
2020/12/11 04:38:04;;;;;;;19.67;5.57;;;;;;;19.74;42.31;97924.44;4993807;28;20035;-77
2020/12/11 04:40:30;;;;;;;23.80;6.80;;;;;;;19.94;41.94;97915.91;4993384;28;20481;-77
2020/12/11 04:42:56;;;;;;;22.08;6.40;;;;;;;20.08;41.56;97917.44;4993751;28;20062;-78
2020/12/11 04:45:22;;;;;;;17.42;5.97;;;;;;;20.10;41.52;97918.56;4992422;28;20118;-77
2020/12/11 04:47:49;;;;;;;24.27;6.10;;;;;;;19.86;42.02;97912.56;4992428;28;20076;-78
2020/12/11 04:50:17;;;;;;;16.70;5.22;;;;;;;19.84;42.08;97917.00;4993650;28;20026;-77
2020/12/11 04:52:45;;;;;;;21.35;6.50;;;;;;;19.79;42.29;97912.78;4993580;28;20041;-77
2020/12/11 04:55:13;;;;;;;28.15;6.60;;;;;;;19.75;42.20;97911.38;4993576;28;20061;-78
2020/12/11 04:57:50;;;;;;;23.48;5.85;;;;;;;19.66;42.45;97914.81;4993553;28;20484;-77
2020/12/11 05:00:18;;;;;;;26.90;6.32;;;;;;;19.72;42.36;97915.78;4993514;28;20029;-77
2020/12/11 05:02:45;;;;;;;17.67;5.90;;;;;;;19.91;41.96;97903.72;4992180;28;20038;-77
2020/12/11 05:05:13;;;;;;;26.38;6.10;;;;;;;19.77;42.16;97906.94;4993414;28;20061;-77
2020/12/11 05:07:39;;;;;;;23.52;5.82;;;;;;;19.74;42.24;97915.34;4993416;28;20027;-78
2020/12/11 05:10:06;;;;;;;24.50;5.95;;;;;;;19.75;42.16;97903.81;4993391;28;20105;-77
2020/12/11 05:12:33;;;;;;;26.13;7.00;;;;;;;19.65;42.58;97916.03;4993237;28;20026;-77
2020/12/11 05:15:09;;;;;;;18.05;5.60;;;;;;;19.79;42.06;97912.78;4993313;28;20027;-78
2020/12/11 05:17:36;;;;;;;29.05;6.82;;;;;;;19.66;42.18;97914.81;4993301;28;20026;-77
2020/12/11 05:20:03;;;;;;;19.55;5.68;;;;;;;19.65;42.37;97910.47;4993108;28;20511;-77
2020/12/11 05:22:34;;;;;;;31.77;6.95;;;;;;;19.52;42.37;97917.97;4993246;28;20038;-78
2020/12/11 05:25:00;;;;;;;23.42;5.90;;;;;;;19.59;42.40;97913.03;4993278;28;20376;-77
2020/12/11 05:27:47;;;;;;;21.98;5.72;;;;;;;19.63;42.23;97913.66;4993150;28;20109;-77
2020/12/11 05:30:13;;;;;;;23.20;5.53;;;;;;;19.73;42.03;97906.28;4993242;28;20097;-77
2020/12/11 05:32:46;;;;;;;18.52;4.90;;;;;;;19.73;41.87;97899.97;4993157;28;20022;-77
2020/12/11 05:35:17;;;;;;;24.65;7.65;;;;;;;19.68;41.79;97899.28;4993118;28;20027;-77
2020/12/11 05:37:50;;;;;;;25.30;6.30;;;;;;;19.67;41.89;97896.97;4993138;28;20023;-77
2020/12/11 05:40:21;;;;;;;29.27;7.30;;;;;;;19.68;42.00;97893.75;4991865;28;20154;-78
2020/12/11 05:43:07;;;;;;;21.42;5.88;;;;;;;19.68;41.76;97901.28;4993093;28;20035;-77
2020/12/11 05:45:34;;;;;;;27.98;7.00;;;;;;;19.73;41.63;97897.97;4991810;28;20476;-78
2020/12/11 05:48:01;;;;;;;27.30;6.35;;;;;;;19.68;41.82;97901.28;4991693;28;20408;-77
2020/12/11 05:50:27;;;;;;;21.23;6.65;;;;;;;19.69;41.81;97897.28;4993130;28;20023;-77
2020/12/11 05:52:54;;;;;;;21.58;5.85;;;;;;;19.70;41.71;97898.84;4995675;28;20031;-78
2020/12/11 05:55:21;;;;;;;29.00;7.13;;;;;;;19.63;41.75;97897.06;4995772;28;20027;-79
2020/12/11 05:57:51;;;;;;;23.58;6.65;;;;;;;19.61;41.77;97904.25;5002197;28;20025;-79
2020/12/11 06:00:18;;;;;;;28.33;6.15;;;;;;;19.47;42.14;97899.13;5004191;28;20109;-79
2020/12/11 06:02:46;;;;;;;21.50;6.72;;;;;;;19.43;41.97;97907.53;4999662;28;20029;-78
2020/12/11 06:05:14;;;;;;;19.30;5.50;;;;;;;19.34;42.01;97904.63;5001550;28;20018;-79
2020/12/11 06:07:42;;;;;;;17.58;5.40;;;;;;;19.38;41.93;97902.53;4996345;28;20396;-79
2020/12/11 06:10:08;;;;;;;24.42;5.43;;;;;;;19.28;42.07;97907.19;4995280;28;20027;-79
2020/12/11 06:12:34;;;;;;;19.83;6.25;;;;;;;19.19;42.27;97909.78;4996450;28;20037;-79
2020/12/11 06:15:10;;;;;;;19.02;6.32;;;;;;;19.01;42.45;97917.84;4996576;28;20022;-81
2020/12/11 06:18:04;;;;;;;18.48;5.28;;;;;;;19.00;42.56;97921.81;4996369;28;20036;-79
2020/12/11 06:20:32;;;;;;;19.92;5.35;;;;;;;19.06;42.29;97918.09;4995358;28;20544;-79
2020/12/11 06:23:25;;;;;;;17.85;5.10;;;;;;;19.04;42.16;97916.94;4996260;28;20027;-79
2020/12/11 06:25:56;;;;;;;25.25;5.50;;;;;;;19.08;42.07;97928.72;5001526;28;20034;-80
2020/12/11 06:28:44;;;;;;;22.55;5.90;;;;;;;18.97;42.31;97928.25;5007261;28;20022;-79
2020/12/11 06:31:17;;;;;;;18.30;5.88;;;;;;;18.93;42.38;97930.31;5002772;28;20054;-79
2020/12/11 06:33:52;;;;;;;35.03;7.65;;;;;;;18.88;42.38;97936.38;5013013;28;20385;-80
2020/12/11 06:36:18;;;;;;;28.88;5.85;;;;;;;18.75;43.03;97937.09;5015713;28;20018;-78
2020/12/11 06:38:52;;;;;;;24.60;5.35;;;;;;;18.86;42.37;97936.81;5015733;28;20084;-78
2020/12/11 06:41:26;;;;;;;22.00;6.57;;;;;;;18.81;42.50;97917.97;5014263;28;20502;-79
2020/12/11 06:43:52;;;;;;;18.48;5.90;;;;;;;18.93;42.34;97933.09;5014247;28;20022;-78
2020/12/11 06:46:23;;;;;;;16.05;4.55;;;;;;;18.80;42.63;97935.78;5015497;28;20384;-78
2020/12/11 06:49:13;;;;;;;35.55;7.20;;;;;;;18.86;42.44;97934.03;5015394;28;20421;-78
2020/12/11 06:51:44;;;;;;;;;;;;;;;18.79;42.67;97940.53;5015031;28;20476;-79
2020/12/11 06:54:10;;;;;;;16.85;4.70;;;;;;;18.74;42.70;97940.28;5015181;28;19914;-80
2020/12/11 06:56:46;;;;;;;17.35;4.18;;;;;;;18.77;42.60;97936.66;5015302;28;20526;-78
2020/12/11 06:59:44;;;;;;;18.85;4.28;;;;;;;18.63;42.91;97942.53;5015210;28;20380;-78
2020/12/11 07:02:14;;;;;;;21.00;5.05;;;;;;;18.57;43.35;97940.28;5013509;28;20079;-79
2020/12/11 07:04:48;;;;;;;28.45;4.75;;;;;;;18.18;44.10;97941.25;5015189;28;20049;-79
2020/12/11 07:07:13;;;;;;;21.45;4.97;;;;;;;18.38;43.81;97938.41;5015100;28;20022;-78
2020/12/11 07:09:40;;;;;;;23.20;6.32;;;;;;;18.44;43.45;97946.94;5014976;28;20093;-79
2020/12/11 07:12:07;;;;;;;15.35;4.10;;;;;;;18.17;44.14;97948.00;5013642;28;20033;-78
2020/12/11 07:14:33;;;;;;;19.98;5.90;;;;;;;18.13;44.44;97943.75;5015004;28;20033;-81
2020/12/11 07:16:59;;;;;;;19.27;5.10;;;;;;;18.19;44.21;97948.34;5015213;28;20037;-78
2020/12/11 07:19:25;;;;;;;17.55;4.72;;;;;;;18.18;44.19;97941.25;5014866;28;20119;-78
2020/12/11 07:21:51;;;;;;;22.25;5.32;;;;;;;18.07;44.59;97949.03;5014611;28;20069;-78
2020/12/11 07:24:17;;;;;;;17.88;5.07;;;;;;;18.09;44.44;97949.38;5014680;28;20034;-78
2020/12/11 07:26:43;;;;;;;18.85;4.88;;;;;;;18.06;44.66;97954.97;5003111;28;20545;-81
2020/12/11 07:29:15;;;;;;;19.30;5.78;;;;;;;18.08;44.46;97956.13;4993863;28;20034;-79
2020/12/11 07:31:45;;;;;;;18.98;5.22;;;;;;;17.84;45.02;97955.50;4995591;28;20536;-78
2020/12/11 07:34:23;;;;;;;16.02;3.78;;;;;;;17.99;44.81;97965.00;4994928;28;20030;-78
2020/12/11 07:36:54;;;;;;;20.98;5.05;;;;;;;17.99;44.67;97965.00;4995058;28;20046;-78
2020/12/11 07:39:21;;;;;;;21.38;4.70;;;;;;;17.95;45.10;97967.06;4993657;28;20030;-79
2020/12/11 07:41:48;;;;;;;20.02;5.20;;;;;;;18.06;44.77;97966.84;4994918;28;20022;-79
2020/12/11 07:44:25;;;;;;;22.20;4.75;;;;;;;17.77;45.49;97972.22;4994887;28;20450;-80
2020/12/11 07:46:54;;;;;;;16.73;4.95;;;;;;;17.94;45.10;97967.50;4994871;28;20018;-79
2020/12/11 07:49:20;;;;;;;15.88;4.95;;;;;;;17.99;45.15;97967.00;4994769;28;20057;-80
2020/12/11 07:51:47;;;;;;;14.02;4.18;;;;;;;18.16;44.57;97976.84;4993458;28;20034;-79
2020/12/11 07:54:13;;;;;;;13.55;4.63;;;;;;;18.00;45.10;97979.59;4994495;28;20081;-79
2020/12/11 07:56:40;;;;;;;17.35;5.43;;;;;;;17.97;45.36;97980.44;4994597;28;20057;-80
2020/12/11 07:59:10;;;;;;;22.25;6.30;;;;;;;17.98;45.35;97987.50;4994662;28;20117;-79
2020/12/11 08:01:37;;;;;;;17.83;5.18;;;;;;;18.33;44.55;97996.97;4994489;28;20085;-80
2020/12/11 08:04:03;;;;;;;14.77;4.18;;;;;;;18.32;44.40;97989.13;4994568;28;20029;-79
2020/12/11 08:06:28;;;;;;;23.90;5.22;;;;;;;18.17;44.90;97994.22;4994427;28;20034;-79
2020/12/11 08:08:54;;;;;;;23.77;5.13;;;;;;;18.05;45.21;97992.88;4994358;28;20527;-78
2020/12/11 08:11:27;;;;;;;17.55;4.20;;;;;;;17.91;45.40;97994.00;4992681;28;20025;-78
2020/12/11 08:14:03;;;;;;;15.48;4.63;;;;;;;17.95;45.18;98002.19;4993479;28;20551;-79
2020/12/11 08:16:29;;;;;;;16.88;4.60;;;;;;;18.21;45.14;98005.94;4995826;28;20034;-79
2020/12/11 08:18:56;;;;;;;20.20;4.40;;;;;;;18.21;44.75;98009.50;5002535;28;20034;-85
2020/12/11 08:21:32;;;;;;;22.83;4.47;;;;;;;18.22;44.94;98005.53;5000683;28;20042;-79
2020/12/11 08:23:58;;;;;;;20.63;5.72;;;;;;;18.36;44.61;98012.69;4996924;28;20105;-79
2020/12/11 08:26:35;;;;;;;20.45;5.55;;;;;;;18.40;44.39;98012.63;4994034;28;20025;-79
2020/12/11 08:29:04;;;;;;;23.35;5.43;;;;;;;18.22;45.04;98013.81;4993997;28;20059;-79
2020/12/11 08:31:36;;;;;;;20.00;4.53;;;;;;;18.33;44.66;98016.34;4993869;28;20027;-78
2020/12/11 08:34:07;;;;;;;17.20;4.95;;;;;;;18.46;44.28;98019.19;4993746;28;20026;-80
2020/12/11 08:36:37;;;;;;;16.38;4.30;;;;;;;18.53;44.05;98019.81;4992729;28;20388;-80
2020/12/11 08:39:04;;;;;;;20.35;4.55;;;;;;;18.51;44.06;98021.44;4993826;28;20361;-79
2020/12/11 08:41:31;;;;;;;18.20;4.10;;;;;;;18.61;43.94;98028.69;4995596;28;20026;-79
2020/12/11 08:43:57;;;;;;;18.35;4.78;;;;;;;18.65;43.61;98029.38;5010153;28;20053;-78
2020/12/11 08:46:42;;;;;;;21.70;5.78;;;;;;;18.57;43.62;98031.53;5011985;28;20413;-79
2020/12/11 08:49:19;;;;;;;14.60;3.97;;;;;;;18.52;43.76;98023.00;5013213;28;20026;-79
2020/12/11 08:51:45;;;;;;;20.88;5.32;;;;;;;18.67;43.42;98031.78;5028432;28;20535;-79
2020/12/11 08:54:11;;;;;;;20.58;4.47;;;;;;;18.57;43.69;98033.53;5013007;28;20038;-79
2020/12/11 08:56:45;;;;;;;20.40;4.88;;;;;;;18.41;44.07;98037.06;5011822;28;20030;-78
2020/12/11 08:59:11;;;;;;;18.27;4.63;;;;;;;18.53;43.72;98041.16;5013106;28;20127;-78
2020/12/11 09:01:40;;;;;;;17.08;4.90;;;;;;;18.60;43.46;98043.75;5012992;28;20029;-78
2020/12/11 09:04:06;;;;;;;21.25;5.60;;;;;;;18.68;43.30;98053.44;5013015;28;20041;-78
2020/12/11 09:06:31;;;;;;;24.70;5.28;;;;;;;18.66;43.43;98042.03;5012908;28;20037;-78
2020/12/11 09:08:57;;;;;;;18.05;5.32;;;;;;;18.73;43.20;98052.13;5011623;28;20022;-77
2020/12/11 09:11:22;;;;;;;14.38;4.25;;;;;;;18.55;43.62;98052.53;5001599;28;20362;-79
2020/12/11 09:13:48;;;;;;;17.25;5.30;;;;;;;18.69;43.49;98057.78;5002479;28;20054;-78
2020/12/11 09:16:13;;;;;;;17.35;4.90;;;;;;;18.69;43.36;98057.78;4999184;28;20454;-78
2020/12/11 09:18:39;;;;;;;23.58;6.45;;;;;;;18.58;43.79;98057.97;5002418;28;20761;-77
2020/12/11 09:21:04;;;;;;;21.77;5.25;;;;;;;18.70;43.49;98061.31;5001696;28;20052;-79
2020/12/11 09:23:30;;;;;;;24.98;6.22;;;;;;;18.79;43.37;98062.25;5000826;28;20033;-78
2020/12/11 09:25:57;;;;;;;24.10;5.28;;;;;;;18.75;43.57;98066.34;5002516;28;20028;-78
2020/12/11 09:28:24;;;;;;;28.55;7.05;;;;;;;18.87;43.31;98067.63;5004533;28;20029;-78
2020/12/11 09:30:50;;;;;;;20.00;5.13;;;;;;;18.88;43.23;98066.41;5006175;28;20028;-80
2020/12/11 09:33:18;;;;;;;13.15;3.60;;;;;;;18.92;43.30;98078.94;5005371;28;20033;-79
2020/12/11 09:35:44;;;;;;;23.10;5.80;;;;;;;18.92;43.32;98078.16;5005291;28;20026;-80
2020/12/11 09:38:10;;;;;;;23.33;6.13;;;;;;;18.99;43.20;98086.28;5003832;28;20030;-78
2020/12/11 09:40:45;;;;;;;15.68;4.55;;;;;;;18.97;43.36;98092.25;5005246;28;20052;-78
2020/12/11 09:48:36;;;;;;;21.25;4.15;;;;;;;19.11;43.51;98102.19;5007306;28;20030;-78
2020/12/11 09:56:22;;;;;;;22.67;5.20;;;;;;;19.22;42.99;98111.00;4996800;28;20459;-78
2020/12/11 09:58:49;;;;;;;16.58;4.05;;;;;;;19.25;43.51;98112.13;5000359;28;20030;-79
2020/12/11 10:01:19;;;;;;;25.33;5.47;;;;;;;19.28;43.31;98109.28;5016139;28;20053;-78
2020/12/11 10:03:44;;;;;;;16.60;5.03;;;;;;;19.23;43.52;98112.56;5016302;28;20022;-79
2020/12/11 10:06:10;;;;;;;18.80;4.32;;;;;;;19.21;43.53;98115.00;5014638;28;20033;-79
2020/12/11 10:08:35;;;;;;;15.88;4.72;;;;;;;19.32;43.44;98111.94;5015153;28;20507;-79
2020/12/11 10:11:01;;;;;;;30.02;7.03;;;;;;;19.09;44.16;98126.75;5013984;28;20472;-78
2020/12/11 10:13:28;;;;;;;18.80;4.80;;;;;;;19.28;43.75;98117.56;5014162;28;20026;-79
2020/12/11 10:15:53;;;;;;;22.30;5.15;;;;;;;19.33;43.45;98127.31;5014362;28;20152;-79
2020/12/11 10:18:19;;;;;;;16.25;5.03;;;;;;;19.37;43.69;98128.81;5014281;28;20104;-79
2020/12/11 10:20:44;;;;;;;21.90;5.05;;;;;;;19.32;43.93;98134.09;5014133;28;20046;-79
2020/12/11 10:23:10;;;;;;;17.17;4.70;;;;;;;18.91;45.11;98129.97;5014402;28;20091;-79
2020/12/11 10:25:36;;;;;;;25.13;5.55;;;;;;;19.18;44.04;98129.69;5015841;28;20033;-79
2020/12/11 10:28:02;;;;;;;20.80;4.28;;;;;;;19.26;43.89;98136.59;5015805;28;20029;-79
2020/12/11 10:30:28;;;;;;;22.02;5.03;;;;;;;19.17;44.16;98141.97;5015814;28;20057;-79
2020/12/11 10:32:54;;;;;;;19.20;5.20;;;;;;;19.25;43.98;98143.34;5015600;28;20558;-79
2020/12/11 10:35:20;;;;;;;22.15;4.68;;;;;;;19.11;44.41;98141.69;5015694;28;20026;-79
2020/12/11 10:37:46;;;;;;;18.70;5.15;;;;;;;19.46;43.34;98147.56;5014849;28;20026;-79
2020/12/11 10:40:12;;;;;;;19.85;5.50;;;;;;;19.63;43.05;98140.81;5015664;28;20131;-79
2020/12/11 10:42:38;;;;;;;17.52;4.65;;;;;;;19.67;43.22;98149.03;5015558;28;20491;-79
2020/12/11 10:45:04;;;;;;;20.77;5.05;;;;;;;19.71;42.95;98152.47;5015512;28;20080;-79
2020/12/11 10:47:30;;;;;;;18.88;4.82;;;;;;;19.65;43.17;98155.00;5015464;28;20026;-78
2020/12/11 10:49:55;;;;;;;25.17;5.78;;;;;;;19.73;43.04;98157.59;5014098;28;20388;-79
2020/12/11 10:52:21;;;;;;;17.48;5.22;;;;;;;19.77;43.11;98156.25;5015401;28;20036;-78
2020/12/11 10:54:48;;;;;;;19.20;5.28;;;;;;;19.75;42.95;98158.69;5015291;28;20467;-78
2020/12/11 10:57:15;;;;;;;21.75;5.00;;;;;;;19.81;42.83;98161.72;5015362;28;20476;-79
2020/12/11 10:59:40;;;;;;;12.57;4.65;;;;;;;19.74;43.07;98162.69;5015245;28;20018;-79
2020/12/11 11:02:07;;;;;;;16.48;4.55;;;;;;;19.74;42.94;98161.91;5015177;28;20026;-79
2020/12/11 11:04:32;;;;;;;17.10;5.13;;;;;;;19.76;43.08;98156.72;5013836;28;20042;-79
2020/12/11 11:07:05;;;;;;;17.88;4.50;;;;;;;19.77;42.99;98161.03;5015206;28;20034;-79
2020/12/11 11:09:47;;;;;;;16.45;4.45;;;;;;;19.61;43.25;98168.16;5015071;28;20105;-78
2020/12/11 11:20:21;;;;;;;17.30;4.35;;;;;;;19.92;42.66;98173.28;5014727;28;20085;-79
2020/12/11 11:28:03;;;;;;;21.27;6.57;;;;;;;19.46;43.93;98180.03;5014728;28;20029;-79
2020/12/11 11:30:32;;;;;;;14.85;5.20;;;;;;;19.38;44.21;98176.66;5014628;28;20026;-79
2020/12/11 11:32:58;;;;;;;18.23;6.68;;;;;;;19.54;43.98;98179.41;5014518;28;20030;-79
2020/12/11 11:35:25;;;;;;;13.27;6.03;;;;;;;19.60;44.06;98174.16;5014606;28;20029;-80
2020/12/11 11:37:51;;;;;;;27.90;7.40;;;;;;;19.65;43.99;98193.00;5014530;28;20101;-79
2020/12/11 11:40:17;;;;;;;19.45;7.32;;;;;;;19.47;44.42;98187.88;5014443;28;20164;-79
2020/12/11 11:42:43;;;;;;;17.63;6.60;;;;;;;19.80;43.74;98185.88;5014485;28;20018;-79
2020/12/11 11:45:13;;;;;;;20.10;7.93;;;;;;;19.58;44.38;98182.91;5014479;28;20064;-79
2020/12/11 11:47:41;;;;;;;18.10;8.15;;;;;;;19.72;44.13;98194.78;5014378;28;20030;-79
2020/12/11 11:52:59;;;;;;;21.60;9.18;;;;;;;19.86;43.89;98195.19;5014496;28;20061;-79
2020/12/11 11:55:24;;;;;;;27.58;12.18;;;;;;;19.76;44.10;98199.03;5014394;28;20391;-79